Time;durP1;ratioP1;P1;durP2;ratioP2;P2;SDS_P1;SDS_P2;PMS_P1;PMS_P2;Temp;Humidity;BMP_temperature;BMP_pressure;BME280_temperature;BME280_humidity;BME280_pressure;Samples;Min_cycle;Max_cycle;Signal;HPM_P1;HPM_P2
2021/03/12 00:02:19;;;;;;;7.32;2.00;;;7.50;82.10;;;6.68;70.04;97722.94;5120113;28;20491;-81
2021/03/12 00:04:45;;;;;;;2.97;1.48;;;7.60;81.00;;;6.62;69.15;97726.41;5121174;28;20408;-79
2021/03/12 00:07:16;;;;;;;3.90;1.70;;;7.60;79.60;;;6.80;69.02;97726.44;5120245;28;20412;-80
2021/03/12 00:09:42;;;;;;;5.97;1.80;;;7.70;79.90;;;6.74;68.90;97731.78;5120368;28;20419;-80
2021/03/12 00:12:11;;;;;;;5.00;1.48;;;7.80;79.40;;;6.67;68.85;97738.94;5120104;28;20423;-80
2021/03/12 00:14:37;;;;;;;3.50;1.33;;;7.70;79.10;;;6.71;68.46;97730.38;5121186;28;20400;-80
2021/03/12 00:17:04;;;;;;;4.63;1.75;;;7.70;78.80;;;6.78;68.40;97725.06;5121646;28;20415;-79
2021/03/12 00:19:30;;;;;;;4.22;1.40;;;7.80;79.00;;;6.99;67.50;97737.81;5102804;28;20563;-80
2021/03/12 00:21:57;;;;;;;4.90;1.67;;;7.90;78.10;;;6.94;67.24;97732.38;5122204;28;20503;-80
2021/03/12 00:24:23;;;;;;;5.53;1.65;;;8.00;77.60;;;6.92;67.81;97731.78;5104176;28;20412;-80
2021/03/12 00:26:49;;;;;;;3.42;1.30;;;7.90;78.00;;;7.26;65.58;97738.28;5122045;28;20472;-81
2021/03/12 00:29:16;;;;;;;5.57;1.77;;;8.10;77.10;;;7.20;65.37;97742.63;5121700;28;20400;-80
2021/03/12 00:31:43;;;;;;;5.05;1.88;;;8.20;75.60;;;7.21;64.79;97744.22;5122195;28;20477;-80
2021/03/12 00:34:09;;;;;;;3.83;1.67;;;8.20;75.20;;;7.16;64.77;97754.59;5121286;28;20505;-80
2021/03/12 00:36:35;;;;;;;6.25;1.60;;;8.20;74.70;;;7.09;65.22;97764.41;5120408;28;20412;-79
2021/03/12 00:39:01;;;;;;;6.07;1.80;;;8.10;75.00;;;7.09;65.30;97755.69;5120471;28;20414;-80
2021/03/12 00:41:28;;;;;;;6.27;1.80;;;8.10;75.40;;;7.10;64.92;97770.47;5119972;28;20671;-80
2021/03/12 00:43:54;;;;;;;6.10;1.77;;;8.10;74.90;;;7.38;62.32;97770.75;5120154;28;20528;-80
2021/03/12 00:46:21;;;;;;;5.75;1.90;;;8.30;72.50;;;7.33;63.06;97776.69;5120524;28;20412;-80
2021/03/12 00:48:47;;;;;;;5.40;1.92;;;8.30;72.90;;;7.37;62.74;97772.56;5120074;28;20432;-80
2021/03/12 00:51:13;;;;;;;5.87;1.80;;;8.30;72.70;;;7.35;63.09;97781.75;5119428;28;20426;-80
2021/03/12 00:53:39;;;;;;;8.27;2.08;;;8.30;72.90;;;7.26;63.24;97789.13;5120171;28;20707;-80
2021/03/12 00:56:06;;;;;;;6.25;1.88;;;8.30;72.90;;;7.23;63.63;97786.91;5120913;28;20553;-80
2021/03/12 00:58:32;;;;;;;6.67;2.00;;;8.20;73.20;;;7.34;62.86;97793.28;5102316;28;20408;-80
2021/03/12 01:00:58;;;;;;;5.57;1.70;;;8.30;72.60;;;7.36;62.89;97799.16;5120030;28;20742;-80
2021/03/12 01:03:25;;;;;;;4.40;1.75;;;8.30;72.60;;;7.35;62.78;97797.53;5119884;28;20428;-80
2021/03/12 01:05:51;;;;;;;6.17;1.83;;;8.40;72.60;;;7.38;62.96;97811.06;5119350;28;20506;-80
2021/03/12 01:08:17;;;;;;;5.30;1.60;;;8.30;72.40;;;7.45;62.64;97810.97;5119487;28;20412;-80
2021/03/12 01:10:44;;;;;;;4.97;1.80;;;8.40;72.30;;;7.48;61.60;97812.38;5119463;28;20617;-80
2021/03/12 01:13:10;;;;;;;6.70;2.00;;;8.40;71.40;;;7.44;61.95;97822.56;5118587;28;20465;-80
2021/03/12 01:15:36;;;;;;;5.90;1.65;;;8.40;71.40;;;7.49;61.07;97809.53;5100579;28;20401;-80
2021/03/12 01:18:03;;;;;;;5.53;1.70;;;8.40;70.30;;;7.44;61.93;97814.66;5118476;28;20732;-80
2021/03/12 01:20:35;;;;;;;4.30;1.83;;;8.40;71.40;;;7.44;61.09;97817.28;5118320;28;20647;-80
2021/03/12 01:23:02;;;;;;;6.22;2.00;;;8.40;71.40;;;7.37;60.98;97822.63;5118959;28;20404;-80
2021/03/12 01:25:32;;;;;;;6.00;1.75;;;8.40;70.30;;;7.35;61.08;97824.69;5101340;28;20415;-80
2021/03/12 01:27:58;;;;;;;4.82;1.65;;;8.30;70.60;;;7.31;60.91;97814.78;5118583;28;20416;-79
2021/03/12 01:30:30;;;;;;;8.50;1.80;;;8.30;70.30;;;7.22;61.88;97826.63;5119361;28;20396;-80
2021/03/12 01:32:56;;;;;;;8.07;1.63;;;8.20;71.00;;;7.29;59.00;97828.16;5120288;28;20411;-80
2021/03/12 01:35:23;;;;;;;7.13;2.00;;;8.20;68.20;;;7.30;58.59;97842.94;5118584;28;20396;-79
2021/03/12 01:37:50;;;;;;;10.90;2.40;;;8.30;67.60;;;7.27;58.63;97832.06;5118349;28;20404;-79
2021/03/12 01:40:18;;;;;;;7.80;1.97;;;8.30;67.40;;;7.20;57.66;97820.78;5119481;28;20397;-79
2021/03/12 01:42:44;;;;;;;7.80;2.00;;;8.20;66.60;;;7.16;58.51;97838.84;5122151;28;20455;-80
2021/03/12 01:45:19;;;;;;;7.35;1.88;;;8.20;67.40;;;7.18;58.73;97838.63;5119141;28;20516;-80
2021/03/12 01:47:45;;;;;;;4.78;1.70;;;8.20;67.70;;;7.18;58.18;97849.16;5120403;28;20514;-80
2021/03/12 01:50:12;;;;;;;6.10;1.90;;;8.20;67.00;;;7.14;58.25;97861.94;5119575;28;20411;-80
2021/03/12 01:52:38;;;;;;;5.87;2.33;;;8.20;67.00;;;7.16;59.30;97867.81;5118694;28;20476;-80
2021/03/12 01:55:14;;;;;;;5.30;1.80;;;8.20;68.20;;;7.19;60.76;97880.53;5118958;28;20412;-80
2021/03/12 01:57:41;;;;;;;5.15;1.80;;;8.20;69.70;;;7.22;60.11;97893.25;5119365;28;20412;-80
2021/03/12 02:00:09;;;;;;;5.60;1.70;;;8.20;69.20;;;7.12;60.89;97889.53;5118951;28;20400;-80
2021/03/12 02:02:37;;;;;;;9.98;2.20;;;8.20;70.00;;;6.98;62.44;97886.22;5118742;28;20412;-80
2021/03/12 02:05:06;;;;;;;6.07;1.77;;;8.10;71.50;;;7.02;62.01;97891.84;5118834;28;20537;-80
2021/03/12 02:07:32;;;;;;;7.00;1.80;;;8.00;71.20;;;6.84;61.81;97890.75;5126058;27;20428;-79
2021/03/12 02:09:58;;;;;;;6.72;2.03;;;7.90;71.60;;;6.68;62.41;97890.50;5135585;27;20475;-80
2021/03/12 02:12:33;;;;;;;5.72;1.73;;;7.70;71.30;;;6.66;63.09;97890.69;5136842;27;20392;-78
2021/03/12 02:15:06;;;;;;;7.07;2.15;;;7.70;72.40;;;6.62;63.27;97881.59;5136523;27;20408;-78
2021/03/12 02:17:38;;;;;;;7.03;1.88;;;7.60;72.40;;;6.64;62.30;97879.56;5130599;27;20573;-80
2021/03/12 02:20:31;;;;;;;6.28;1.75;;;7.70;71.70;;;6.51;63.22;97869.16;5119547;28;20404;-78
2021/03/12 02:23:25;;;;;;;4.53;1.63;;;7.50;72.20;;;6.41;62.91;97881.97;5118572;28;20442;-80
2021/03/12 02:26:01;;;;;;;7.35;1.80;;;7.50;72.30;;;6.53;63.51;97883.72;5101194;28;20504;-80
2021/03/12 02:28:28;;;;;;;3.80;1.60;;;7.40;72.90;;;6.56;63.19;97882.47;5119812;28;20407;-80
2021/03/12 02:30:56;;;;;;;8.68;2.20;;;7.50;72.70;;;6.58;62.74;97889.13;5119492;28;20682;-80
2021/03/12 02:33:25;;;;;;;4.50;1.65;;;7.60;72.10;;;6.61;61.89;97883.44;5118682;28;20945;-80
2021/03/12 02:35:54;;;;;;;5.68;1.75;;;7.60;71.30;;;6.60;61.83;97891.56;5117969;28;20443;-80
2021/03/12 02:38:24;;;;;;;4.63;1.60;;;7.60;71.40;;;6.55;61.46;97886.09;5118757;28;20400;-80
2021/03/12 02:40:51;;;;;;;5.57;1.90;;;7.60;70.60;;;6.52;61.73;97882.09;5119126;28;20408;-80
2021/03/12 02:43:18;;;;;;;5.45;1.60;;;7.60;71.00;;;6.55;61.71;97875.59;5118771;28;20397;-80
2021/03/12 02:45:45;;;;;;;5.03;1.70;;;7.50;70.90;;;6.57;61.48;97871.75;5119451;28;20415;-80
2021/03/12 02:48:12;;;;;;;5.78;1.50;;;7.50;70.90;;;6.32;61.75;97870.06;5102173;28;20547;-80
2021/03/12 02:50:39;;;;;;;7.13;2.15;;;7.40;70.70;;;6.24;62.16;97867.72;5101659;28;20500;-80
2021/03/12 02:53:06;;;;;;;3.88;1.83;;;7.20;71.20;;;6.42;60.84;97867.78;5119596;28;20396;-80
2021/03/12 02:55:32;;;;;;;9.90;2.47;;;7.30;70.50;;;6.37;60.57;97871.06;5119264;28;20392;-80
2021/03/12 02:57:59;;;;;;;6.37;1.73;;;7.40;69.70;;;6.36;60.47;97866.03;5120067;28;20396;-80
2021/03/12 03:00:25;;;;;;;5.03;1.85;;;7.30;69.60;;;6.19;61.34;97876.22;5119830;28;20499;-80
2021/03/12 03:02:53;;;;;;;7.10;2.00;;;7.20;70.10;;;6.14;60.27;97876.88;5119576;28;20707;-80
2021/03/12 03:05:20;;;;;;;5.75;1.77;;;7.20;69.20;;;6.27;59.93;97873.34;5124663;28;20396;-79
2021/03/12 03:07:49;;;;;;;6.05;1.90;;;7.30;69.10;;;6.29;59.42;97870.53;5129660;28;20427;-77
2021/03/12 03:10:17;;;;;;;5.15;1.67;;;7.30;69.00;;;6.44;58.43;97866.56;5130150;28;20818;-79
2021/03/12 03:12:46;;;;;;;5.57;1.90;;;7.40;67.40;;;6.31;59.29;97866.66;5125440;28;20460;-78
2021/03/12 03:15:15;;;;;;;7.13;2.20;;;7.30;67.90;;;6.21;59.71;97879.47;5131019;28;20400;-79
2021/03/12 03:17:42;;;;;;;7.47;1.75;;;7.20;68.20;;;6.13;60.23;97877.88;5130371;28;20415;-79
2021/03/12 03:20:14;;;;;;;4.57;1.58;;;7.20;69.10;;;6.35;60.09;97883.63;5124902;28;20524;-79
2021/03/12 03:22:41;;;;;;;5.68;1.55;;;7.30;69.50;;;6.25;60.32;97888.53;5121693;28;20420;-79
2021/03/12 03:25:10;;;;;;;4.95;2.13;;;7.30;69.30;;;6.26;60.34;97890.13;5122597;28;20535;-79
2021/03/12 03:27:38;;;;;;;6.60;1.98;;;7.30;69.50;;;6.45;59.83;97891.06;5121026;28;20416;-79
2021/03/12 03:30:07;;;;;;;7.83;2.50;;;7.30;69.20;;;6.47;59.63;97900.31;5121797;28;20755;-79
2021/03/12 03:32:33;;;;;;;6.35;1.95;;;7.40;69.00;;;6.55;59.59;97909.78;5121897;28;20443;-79
2021/03/12 03:35:00;;;;;;;11.70;2.20;;;7.50;68.50;;;6.53;58.30;97909.22;5121698;28;20403;-79
2021/03/12 03:37:28;;;;;;;8.50;1.98;;;7.50;67.50;;;6.53;58.12;97922.34;5120848;28;20503;-79
2021/03/12 03:39:55;;;;;;;5.07;1.92;;;7.50;66.80;;;6.48;58.03;97922.97;5119891;28;20801;-79
2021/03/12 03:42:24;;;;;;;6.57;2.00;;;7.50;66.80;;;6.38;57.05;97925.28;5120572;28;20406;-79
2021/03/12 03:44:53;;;;;;;5.10;1.75;;;7.40;65.60;;;6.38;57.71;97938.44;5119993;28;20407;-79
2021/03/12 03:47:21;;;;;;;5.95;1.60;;;7.40;66.50;;;6.34;58.10;97946.94;5118806;28;20453;-79
2021/03/12 03:49:48;;;;;;;6.32;1.80;;;7.40;66.70;;;6.25;56.54;97953.44;5119837;28;20729;-79
2021/03/12 03:52:16;;;;;;;6.20;1.80;;;7.30;65.90;;;6.19;56.97;97955.09;5119237;28;20408;-79
2021/03/12 03:54:45;;;;;;;6.95;1.90;;;7.30;65.10;;;6.18;56.40;97959.53;5120905;28;20721;-79
2021/03/12 03:57:12;;;;;;;7.20;1.83;;;7.20;64.60;;;6.14;56.35;97962.81;5120827;28;20428;-79
2021/03/12 03:59:40;;;;;;;4.93;2.08;;;7.20;64.70;;;6.07;56.54;97975.97;5121023;28;20407;-79
2021/03/12 04:02:09;;;;;;;6.28;1.85;;;7.20;64.80;;;6.08;54.50;97974.97;5121313;28;20413;-79
2021/03/12 04:04:37;;;;;;;7.18;2.00;;;7.20;62.50;;;6.10;54.92;97970.28;5121407;28;20434;-79
2021/03/12 04:07:05;;;;;;;5.25;1.92;;;7.10;63.00;;;6.15;54.50;97982.81;5121393;28;20408;-79
2021/03/12 04:09:33;;;;;;;4.83;1.90;;;7.20;62.70;;;6.11;54.15;97982.41;5103112;28;20484;-78
2021/03/12 04:12:00;;;;;;;7.85;2.13;;;7.20;61.90;;;6.08;54.07;97992.53;5120695;28;20408;-79
2021/03/12 04:14:27;;;;;;;8.68;2.10;;;7.10;61.80;;;6.15;53.97;98001.22;5124103;28;20398;-79
2021/03/12 04:16:53;;;;;;;8.50;2.00;;;7.20;61.80;;;6.11;53.64;97995.56;5136406;28;20412;-78
2021/03/12 04:19:20;;;;;;;7.15;2.20;;;7.20;61.20;;;6.21;53.44;98005.63;5136978;28;20407;-78
2021/03/12 04:21:48;;;;;;;7.93;2.15;;;7.20;61.20;;;6.09;53.08;98018.59;5131160;28;20429;-78
2021/03/12 04:24:14;;;;;;;7.72;2.25;;;7.10;60.80;;;6.11;53.46;98021.03;5130475;28;20416;-78
2021/03/12 04:26:41;;;;;;;7.03;2.08;;;7.20;61.10;;;6.15;52.65;98012.53;5129730;28;20408;-79
2021/03/12 04:29:08;;;;;;;6.40;1.95;;;7.20;60.30;;;6.18;53.09;98013.94;5129191;28;20428;-79
2021/03/12 04:31:35;;;;;;;6.82;2.00;;;7.20;60.50;;;6.12;52.41;98006.88;5123612;28;20737;-79
2021/03/12 04:34:01;;;;;;;5.95;1.95;;;7.20;59.90;;;6.15;52.20;98038.00;5121235;28;20453;-79
2021/03/12 04:36:29;;;;;;;6.07;2.10;;;7.20;59.70;;;6.13;52.46;98016.38;5121050;28;20408;-80
2021/03/12 04:38:55;;;;;;;9.30;2.20;;;7.20;60.00;;;6.20;52.25;98019.78;5120587;28;20447;-79
2021/03/12 04:41:21;;;;;;;10.07;2.38;;;7.20;59.90;;;6.20;51.97;98022.41;5121066;28;20423;-80
2021/03/12 04:43:48;;;;;;;7.38;2.47;;;7.20;59.30;;;6.09;52.03;98018.59;5120333;28;20404;-80
2021/03/12 04:46:15;;;;;;;8.15;2.22;;;7.20;59.50;;;6.15;52.28;98019.63;5119910;28;20417;-80
2021/03/12 04:48:42;;;;;;;9.85;2.13;;;7.20;59.80;;;6.20;52.21;98014.53;5118337;28;20710;-78
2021/03/12 04:51:09;;;;;;;8.05;2.63;;;7.20;59.80;;;6.26;52.08;98012.88;5098502;28;20842;-77
2021/03/12 04:53:38;;;;;;;9.43;2.05;;;7.20;59.80;;;6.20;51.54;98028.47;5117723;28;20700;-77
2021/03/12 04:56:05;;;;;;;9.50;2.40;;;7.30;59.00;;;6.22;51.50;98023.84;5102669;28;20447;-82
2021/03/12 04:58:31;;;;;;;9.82;2.28;;;7.20;59.10;;;6.22;51.54;98036.16;5122794;28;20542;-82
2021/03/12 05:00:58;;;;;;;8.15;2.30;;;7.20;59.10;;;6.10;52.19;98028.09;5128074;28;20425;-81
2021/03/12 05:03:26;;;;;;;11.23;2.13;;;7.20;59.30;;;6.16;51.93;98024.63;5136760;27;20420;-78
2021/03/12 05:05:55;;;;;;;9.90;2.30;;;7.20;59.40;;;6.17;51.81;98041.22;5118992;28;20396;-78
2021/03/12 05:08:23;;;;;;;14.05;3.03;;;7.20;59.30;;;6.03;52.12;98040.44;5136004;28;20865;-78
2021/03/12 05:10:59;;;;;;;5.75;2.10;;;7.10;60.00;;;6.04;52.38;98041.25;5124401;28;20431;-79
2021/03/12 05:13:26;;;;;;;6.97;1.90;;;7.10;59.60;;;6.13;52.38;98046.09;5123299;28;20396;-79
2021/03/12 05:15:52;;;;;;;10.10;2.67;;;7.10;59.80;;;6.23;52.02;98053.56;5120172;28;20568;-78
2021/03/12 05:18:18;;;;;;;11.53;2.33;;;7.20;59.60;;;6.11;52.57;98053.38;5120462;28;20404;-79
2021/03/12 05:20:46;;;;;;;7.13;2.20;;;7.20;59.90;;;6.26;52.55;98055.75;5118835;28;20408;-78
2021/03/12 05:23:13;;;;;;;14.07;2.20;;;7.20;59.90;;;6.27;52.43;98043.41;5119995;28;20415;-78
2021/03/12 05:25:40;;;;;;;9.05;2.05;;;7.30;59.90;;;6.21;52.52;98055.59;5101874;28;20412;-78
2021/03/12 05:28:06;;;;;;;10.70;2.28;;;7.20;59.80;;;6.20;52.78;98040.81;5120325;28;20419;-80
2021/03/12 05:30:32;;;;;;;7.55;1.95;;;7.20;60.00;;;6.28;52.61;98045.84;5120754;28;20789;-79
2021/03/12 05:32:59;;;;;;;7.75;2.22;;;7.30;60.10;;;6.06;53.13;98047.13;5121827;28;20392;-79
2021/03/12 05:35:25;;;;;;;7.28;2.20;;;7.10;60.30;;;6.16;53.04;98052.78;5129103;28;20400;-79
2021/03/12 05:37:52;;;;;;;9.23;2.30;;;7.10;60.60;;;6.15;53.21;98044.09;5122091;28;20412;-79
2021/03/12 05:40:19;;;;;;;10.80;2.53;;;7.20;60.80;;;6.09;53.55;98052.75;5119658;28;20801;-80
2021/03/12 05:42:47;;;;;;;13.13;2.00;;;7.20;60.90;;;6.04;53.98;98052.59;5120640;28;20845;-79
2021/03/12 05:45:16;;;;;;;9.63;2.47;;;7.10;61.70;;;6.14;53.94;98054.78;5119432;28;20686;-79
2021/03/12 05:47:43;;;;;;;6.00;2.10;;;7.10;61.50;;;6.07;54.08;98054.00;5103211;28;20416;-80
2021/03/12 05:50:10;;;;;;;8.50;1.95;;;7.10;61.50;;;6.05;54.12;98053.41;5120471;28;20400;-80
2021/03/12 05:52:36;;;;;;;8.93;2.17;;;7.10;61.70;;;6.16;54.25;98050.16;5119460;28;20512;-80
2021/03/12 05:55:06;;;;;;;8.23;2.10;;;7.10;62.00;;;6.19;54.18;98054.97;5118747;28;20396;-80
2021/03/12 05:57:35;;;;;;;14.80;2.60;;;7.20;61.80;;;6.13;54.68;98056.59;5118334;28;20419;-80
2021/03/12 06:00:05;;;;;;;9.73;2.42;;;7.20;62.30;;;6.10;54.46;98056.19;5118670;28;20396;-80
2021/03/12 06:02:31;;;;;;;6.38;2.15;;;7.20;62.30;;;6.24;54.57;98054.38;5118858;28;20404;-80
2021/03/12 06:04:57;;;;;;;8.48;2.10;;;7.20;62.60;;;6.20;54.36;98060.03;5118694;28;20490;-81
2021/03/12 06:07:24;;;;;;;8.02;2.10;;;7.20;61.80;;;6.10;54.75;98053.56;5118393;28;20493;-79
2021/03/12 06:09:50;;;;;;;8.52;2.22;;;7.20;62.30;;;6.13;54.76;98042.66;5118627;28;20469;-79
2021/03/12 06:12:17;;;;;;;12.02;3.42;;;7.20;62.60;;;6.11;54.75;98047.31;5117634;28;20498;-81
2021/03/12 06:14:49;;;;;;;9.10;2.70;;;7.20;62.60;;;6.06;54.93;98052.38;5120002;28;20457;-80
2021/03/12 06:17:34;;;;;;;9.45;2.28;;;7.10;62.70;;;6.02;55.50;98048.53;5118805;28;20710;-81
2021/03/12 06:20:02;;;;;;;6.57;1.95;;;7.10;64.00;;;6.16;54.74;98045.66;5131527;28;20444;-81
2021/03/12 06:22:29;;;;;;;7.30;2.08;;;7.10;62.90;;;6.20;54.68;98053.97;5133235;28;20405;-81
2021/03/12 06:25:12;;;;;;;15.05;2.78;;;7.20;62.50;;;6.23;54.92;98053.56;5134133;28;20392;-79
2021/03/12 06:27:40;;;;;;;8.98;2.78;;;7.20;62.80;;;6.37;54.88;98051.69;5133435;28;20428;-79
2021/03/12 06:30:08;;;;;;;6.72;2.00;;;7.30;62.80;;;6.20;55.38;98051.34;5132475;28;20418;-79
2021/03/12 06:32:44;;;;;;;8.40;2.25;;;7.20;63.00;;;6.09;55.95;98058.03;5131222;28;20448;-79
2021/03/12 06:35:13;;;;;;;8.55;2.00;;;7.10;63.70;;;6.11;56.12;98060.44;5132774;28;20456;-81
2021/03/12 06:37:40;;;;;;;24.73;5.67;;;7.20;64.00;;;6.19;56.29;98058.41;5129648;28;20388;-81
2021/03/12 06:40:23;;;;;;;15.33;5.97;;;7.20;64.40;;;6.18;56.59;98069.13;5129934;28;20566;-80
2021/03/12 06:43:04;;;;;;;6.45;2.22;;;7.20;65.50;;;6.22;56.67;98068.53;5121083;28;20400;-79
2021/03/12 06:45:32;;;;;;;10.77;2.40;;;7.20;65.10;;;6.25;57.01;98072.53;5125085;28;20461;-80
2021/03/12 06:48:14;;;;;;;6.22;2.00;;;7.20;65.40;;;6.33;56.74;98076.78;5123845;28;20412;-80
2021/03/12 06:50:44;;;;;;;7.57;2.00;;;7.30;65.10;;;6.26;57.16;98082.03;5118553;28;20432;-81
2021/03/12 06:53:25;;;;;;;11.50;2.40;;;7.20;65.20;;;6.19;57.52;98081.25;5123818;28;20404;-79
2021/03/12 06:55:54;;;;;;;14.45;3.42;;;7.20;65.40;;;6.04;57.99;98078.84;5123192;28;20784;-80
2021/03/12 06:58:21;;;;;;;10.57;2.72;;;7.10;66.00;;;6.12;57.52;98075.22;5121352;28;20403;-80
2021/03/12 07:00:48;;;;;;;9.60;2.05;;;7.20;66.00;;;5.98;57.93;98090.19;5101814;28;20456;-80
2021/03/12 07:03:20;;;;;;;14.55;3.00;;;7.10;66.20;;;6.11;58.03;98082.28;5101457;28;20530;-80
2021/03/12 07:06:04;;;;;;;8.00;2.22;;;7.10;66.30;;;6.08;57.82;98095.84;5119055;28;20430;-80
2021/03/12 07:08:37;;;;;;;9.30;2.50;;;7.10;66.10;;;6.20;58.07;98096.84;5119041;28;20523;-80
2021/03/12 07:11:22;;;;;;;10.95;2.70;;;7.20;66.70;;;6.17;58.56;98088.53;5100400;28;20427;-81
2021/03/12 07:13:51;;;;;;;11.50;3.00;;;7.20;67.00;;;6.15;59.19;98098.47;5119836;28;20408;-79
2021/03/12 07:16:19;;;;;;;148.75;13.23;;;7.20;67.70;;;6.28;59.61;98098.44;5118794;28;20416;-80
2021/03/12 07:18:46;;;;;;;20.73;3.22;;;7.30;68.50;;;6.33;59.29;98103.88;5100667;28;20707;-81
2021/03/12 07:21:15;;;;;;;12.95;2.33;;;7.30;67.90;;;6.53;59.29;98116.97;5119706;28;20420;-80
2021/03/12 07:23:44;;;;;;;9.88;2.00;;;7.50;68.20;;;6.61;59.14;98106.22;5120720;28;20465;-80
2021/03/12 07:26:13;;;;;;;11.77;2.20;;;7.60;67.80;;;6.72;58.63;98112.66;5118407;28;20416;-79
2021/03/12 07:28:41;;;;;;;6.82;1.80;;;7.70;67.60;;;6.70;59.02;98109.41;5117538;28;20943;-79
2021/03/12 07:31:12;;;;;;;9.20;2.30;;;7.70;67.80;;;6.97;58.16;98113.56;5117537;28;20573;-81
2021/03/12 07:33:51;;;;;;;9.25;2.28;;;7.80;67.20;;;6.93;57.46;98107.91;5119147;28;20408;-79
2021/03/12 07:36:22;;;;;;;7.13;2.00;;;7.90;66.20;;;6.91;57.51;98122.31;5117175;28;20814;-79
2021/03/12 07:38:51;;;;;;;8.32;2.20;;;7.90;66.00;;;6.90;57.52;98121.50;5099115;28;20809;-78
2021/03/12 07:41:17;;;;;;;5.40;1.70;;;7.90;66.10;;;6.75;59.12;98130.66;5117074;28;20506;-78
2021/03/12 07:43:44;;;;;;;7.10;1.85;;;7.80;67.30;;;6.46;60.90;98124.91;5099664;28;20419;-78
2021/03/12 07:46:16;;;;;;;4.65;1.88;;;7.50;69.40;;;6.51;61.77;98125.06;5117768;28;20527;-78
2021/03/12 07:48:42;;;;;;;6.75;2.03;;;7.50;70.50;;;6.51;60.86;98132.16;5122725;28;20416;-79
2021/03/12 07:51:11;;;;;;;7.30;1.90;;;7.50;69.70;;;6.31;61.60;98137.47;5105195;28;20420;-78
2021/03/12 07:53:49;;;;;;;7.28;1.98;;;7.40;70.30;;;6.17;61.77;98144.53;5122785;28;20406;-79
2021/03/12 07:56:17;;;;;;;8.32;2.20;;;7.30;70.40;;;5.97;63.27;98148.19;5124169;28;20459;-78
2021/03/12 07:58:57;;;;;;;173.13;19.65;;;7.10;72.40;;;5.74;66.63;98138.06;5125846;28;20411;-78
2021/03/12 08:01:25;;;;;;;7.15;2.17;;;6.80;76.10;;;5.64;66.22;98148.97;5121221;28;20514;-78
2021/03/12 08:03:53;;;;;;;7.10;1.98;;;6.70;75.80;;;5.40;65.96;98155.63;5120329;28;20476;-78
2021/03/12 08:06:34;;;;;;;7.93;1.88;;;6.50;75.50;;;5.37;66.45;98153.38;5124069;28;20404;-77
2021/03/12 08:09:01;;;;;;;6.72;2.10;;;6.50;76.20;;;5.29;67.28;98150.94;5120033;28;20412;-78
2021/03/12 08:11:33;;;;;;;6.10;1.88;;;6.40;77.00;;;5.28;67.37;98151.13;5120795;28;20404;-78
2021/03/12 08:14:20;;;;;;;6.80;2.00;;;6.40;77.90;;;5.41;66.85;98148.56;5124727;28;20408;-77
2021/03/12 08:17:16;;;;;;;19.52;3.63;;;6.50;76.60;;;5.66;65.60;98148.78;5111319;28;20438;-78
2021/03/12 08:19:46;;;;;;;6.28;1.98;;;6.60;75.70;;;5.84;65.02;98151.63;5129601;28;20859;-78
2021/03/12 08:22:45;;;;;;;9.95;2.17;;;6.80;74.70;;;5.97;63.15;98142.94;5132992;28;20415;-79
2021/03/12 08:25:13;;;;;;;5.57;2.60;;;7.00;72.80;;;6.17;62.91;98141.91;5130761;28;20477;-79
2021/03/12 08:27:44;;;;;;;9.13;2.10;;;7.20;72.70;;;6.56;62.33;98141.03;5124870;28;20420;-79
2021/03/12 08:30:28;;;;;;;11.27;2.67;;;7.40;72.60;;;6.91;61.25;98151.25;5121890;28;20417;-79
2021/03/12 08:32:56;;;;;;;6.38;2.40;;;7.80;71.20;;;7.21;58.48;98146.25;5123149;28;20422;-79
2021/03/12 08:35:41;;;;;;;8.53;2.43;;;8.20;68.20;;;7.28;58.56;98144.41;5121646;28;20811;-79
2021/03/12 08:38:50;;;;;;;4.53;1.48;;;8.20;67.50;;;7.23;57.99;98141.56;5120287;28;20408;-78
2021/03/12 08:41:20;;;;;;;7.10;1.83;;;8.10;66.80;;;7.26;56.65;98146.44;5120040;28;20415;-78
2021/03/12 08:43:56;;;;;;;5.82;1.98;;;8.20;65.80;;;7.17;55.99;98145.03;5118873;28;20405;-78
2021/03/12 08:46:28;;;;;;;5.80;1.95;;;8.20;64.10;;;7.30;56.40;98140.50;5118729;28;20480;-79
2021/03/12 08:49:04;;;;;;;5.97;2.00;;;8.30;65.20;;;7.14;56.09;98140.22;5118493;28;20430;-79
2021/03/12 08:51:31;;;;;;;7.85;2.38;;;8.20;64.90;;;7.28;57.06;98139.13;5118410;28;20544;-79
2021/03/12 08:53:59;;;;;;;6.28;2.33;;;8.20;65.70;;;7.25;56.01;98139.53;5117755;28;20417;-79
2021/03/12 08:56:29;;;;;;;7.03;1.90;;;8.20;64.40;;;7.31;54.72;98151.84;5119479;28;20408;-79
2021/03/12 08:58:56;;;;;;;9.15;2.33;;;8.30;63.20;;;7.34;54.96;98133.00;5102406;28;20413;-79
2021/03/12 09:01:25;;;;;;;9.98;1.98;;;8.30;63.50;;;7.48;54.76;98128.47;5119690;28;20604;-80
2021/03/12 09:03:58;;;;;;;4.23;2.07;;;8.40;63.20;;;7.61;54.27;98131.00;5102359;28;20860;-79
2021/03/12 09:06:27;;;;;;;5.35;2.05;;;8.50;62.70;;;7.73;54.45;98130.13;5121550;28;20772;-79
2021/03/12 09:08:54;;;;;;;7.78;1.90;;;8.60;63.00;;;7.87;52.80;98125.53;5119995;28;20416;-79
2021/03/12 09:11:22;;;;;;;6.07;2.17;;;8.80;61.00;;;8.07;52.06;98128.00;5120774;28;20712;-77
2021/03/12 09:13:51;;;;;;;7.65;1.80;;;8.90;60.30;;;8.00;51.83;98128.06;5121186;28;20393;-79
2021/03/12 09:16:20;;;;;;;7.00;2.50;;;9.00;59.50;;;7.87;51.00;98120.28;5121075;28;20541;-80
2021/03/12 09:18:47;;;;;;;12.50;4.45;;;8.80;58.70;;;8.12;51.60;98123.69;5122573;28;20472;-81
2021/03/12 09:21:17;;;;;;;6.97;2.17;;;9.00;59.50;;;7.99;50.52;98115.91;5119726;28;20420;-80
2021/03/12 09:23:46;;;;;;;8.02;2.00;;;9.00;58.30;;;8.14;50.53;98126.91;5121004;28;20415;-79
2021/03/12 09:26:16;;;;;;;7.57;2.28;;;9.10;58.50;;;7.99;50.03;98123.81;5119185;28;20413;-79
2021/03/12 09:28:44;;;;;;;8.35;1.90;;;9.00;57.50;;;7.74;50.42;98123.81;5100526;28;20450;-79
2021/03/12 09:31:15;;;;;;;8.67;2.13;;;8.80;57.70;;;7.94;51.04;98123.66;5100114;28;20424;-79
2021/03/12 09:33:44;;;;;;;6.15;1.77;;;8.80;58.90;;;8.26;50.26;98123.56;5118663;28;20412;-80
2021/03/12 09:36:28;;;;;;;8.23;2.00;;;9.10;58.50;;;8.46;50.09;98119.75;5102329;28;20420;-81
2021/03/12 09:39:06;;;;;;;10.10;1.97;;;9.40;58.20;;;8.47;48.71;98126.63;5120513;28;20668;-82
2021/03/12 09:41:32;;;;;;;6.00;1.83;;;9.40;56.70;;;8.70;49.68;98122.53;5121108;28;20412;-82
2021/03/12 09:44:05;;;;;;;6.93;2.00;;;9.50;57.60;;;8.74;49.00;98124.50;5121404;28;20412;-82
2021/03/12 09:46:34;;;;;;;14.00;2.60;;;9.60;56.70;;;8.62;48.79;98107.78;5118060;28;20429;-82
2021/03/12 09:49:06;;;;;;;7.97;1.90;;;9.50;56.10;;;8.75;48.36;98118.19;5113219;28;20420;-82
2021/03/12 09:51:34;;;;;;;8.93;2.05;;;9.60;56.30;;;8.73;48.57;98117.59;5116556;28;20408;-83
2021/03/12 09:54:02;;;;;;;6.05;2.08;;;9.70;56.10;;;8.72;48.15;98117.84;5117736;28;20406;-82
2021/03/12 09:56:29;;;;;;;9.65;1.90;;;9.60;55.80;;;8.76;48.29;98119.00;5117422;28;20571;-82
2021/03/12 09:58:57;;;;;;;5.45;1.90;;;9.60;55.80;;;8.57;48.27;98112.13;5095572;28;20788;-82
2021/03/12 10:01:23;;;;;;;7.22;1.73;;;9.60;55.40;;;8.64;48.93;98124.22;5115208;28;20431;-82
2021/03/12 10:03:49;;;;;;;18.25;2.70;;;9.60;56.90;;;8.89;48.45;98118.84;5117768;28;20400;-82
2021/03/12 10:06:16;;;;;;;6.50;1.83;;;9.70;56.30;;;9.03;48.17;98122.13;5118882;28;20419;-82
2021/03/12 10:09:07;;;;;;;6.25;2.13;;;9.90;56.00;;;9.14;47.38;98124.81;5116679;28;20416;-81
2021/03/12 10:11:42;;;;;;;5.73;1.80;;;10.00;55.40;;;9.18;47.29;98125.97;5116136;28;20549;-81
2021/03/12 10:14:29;;;;;;;5.18;1.63;;;10.10;55.40;;;8.84;48.31;98139.81;5121101;28;20744;-82
2021/03/12 10:17:17;;;;;;;4.82;1.55;;;9.80;55.90;;;8.68;48.93;98129.84;5127983;28;20670;-81
2021/03/12 10:19:51;;;;;;;8.07;1.85;;;9.70;56.30;;;9.04;48.18;98132.47;5125205;28;20425;-82
2021/03/12 10:22:22;;;;;;;5.47;1.40;;;9.80;56.50;;;9.16;47.90;98149.19;5126738;28;20450;-82
2021/03/12 10:24:59;;;;;;;7.05;1.80;;;10.00;56.40;;;9.19;48.54;98127.59;5125876;28;20396;-83
2021/03/12 10:27:29;;;;;;;4.07;1.70;;;10.00;56.40;;;9.31;48.10;98130.28;5105658;28;20504;-82
2021/03/12 10:29:55;;;;;;;6.55;1.50;;;10.10;56.10;;;9.56;47.78;98127.47;5100894;28;20513;-82
2021/03/12 10:32:23;;;;;;;3.42;1.40;;;10.30;55.90;;;9.44;48.49;98122.16;5119703;28;20718;-80
2021/03/12 10:34:51;;;;;;;5.28;1.50;;;10.40;55.90;;;8.50;51.69;98120.91;5117077;28;20400;-81
2021/03/12 10:37:21;;;;;;;6.77;1.73;;;9.60;58.10;;;8.37;52.77;98123.69;5115807;28;20524;-80
2021/03/12 10:39:50;;;;;;;5.53;1.60;;;9.30;60.20;;;9.26;51.26;98119.56;5118598;28;20411;-81
2021/03/12 10:42:24;;;;;;;8.85;2.08;;;9.90;60.00;;;9.81;50.21;98114.09;5119331;28;20431;-81
2021/03/12 10:44:52;;;;;;;14.90;2.53;;;10.50;58.80;;;9.91;50.17;98114.34;5129298;28;20462;-80